createdAt,value
2017-09-17T00:02:34.877Z,94653.05
2017-09-17T00:17:34.871Z,94659.31
2017-09-17T00:32:34.814Z,94658.92
2017-09-17T00:47:34.976Z,94661.56
2017-09-17T01:02:35.207Z,94663.05
2017-09-17T01:17:35.212Z,94659.80
2017-09-17T01:32:35.215Z,94656.55
2017-09-17T01:47:35.175Z,94640.61
2017-09-17T02:02:34.577Z,94636.23
2017-09-17T02:17:34.764Z,94625.48
2017-09-17T02:32:34.501Z,94628.70
2017-09-17T02:47:34.513Z,94624.69
2017-09-17T03:02:34.952Z,94626.56
2017-09-17T03:17:35.188Z,94623.27
2017-09-17T03:32:34.886Z,94632.02
2017-09-17T03:47:34.904Z,94628.52
2017-09-17T04:02:35.307Z,94634.87
2017-09-17T04:17:35.558Z,94627.28
2017-09-17T04:32:35.242Z,94642.89
2017-09-17T04:47:35.268Z,94661.03
2017-09-17T05:02:34.690Z,94666.36
2017-09-17T05:17:34.672Z,94676.25
2017-09-17T05:32:34.128Z,94668.45
2017-09-17T05:47:34.553Z,94667.78
2017-09-17T06:02:35.020Z,94669.26
2017-09-17T06:17:34.989Z,94688.71
2017-09-17T06:32:34.989Z,94705.72
2017-09-17T06:47:37.495Z,94706.45
2017-09-17T07:02:35.417Z,94727.14
2017-09-17T07:17:35.330Z,94708.59
2017-09-17T07:32:35.408Z,94703.30
2017-09-17T07:47:35.448Z,94697.29
2017-09-17T08:02:34.780Z,94679.48
2017-09-17T08:17:34.753Z,94629.90
2017-09-17T08:32:34.707Z,94614.11
2017-09-17T08:47:36.822Z,94624.66
2017-09-17T09:02:34.618Z,94615.59
2017-09-17T09:17:37.143Z,94598.58
2017-09-17T09:32:34.938Z,94576.77
2017-09-17T09:47:34.668Z,94551.80
2017-09-17T10:02:35.037Z,94542.25
2017-09-17T10:17:34.587Z,94520.80
2017-09-17T10:32:34.549Z,94488.80
2017-09-17T10:47:34.482Z,94472.89
2017-09-17T11:02:34.908Z,94453.62
2017-09-17T11:17:34.955Z,94421.53
2017-09-17T11:32:36.850Z,94393.86
2017-09-17T11:47:36.887Z,94384.75
2017-09-17T12:02:35.275Z,94365.69
2017-09-17T12:17:35.258Z,94352.88
2017-09-17T12:32:35.285Z,94334.08
2017-09-17T12:47:35.242Z,94305.38
2017-09-17T13:02:34.707Z,94293.31
2017-09-17T13:17:34.590Z,94265.41
2017-09-17T13:32:34.718Z,94252.41
2017-09-17T13:47:34.659Z,94238.98
2017-09-17T14:02:36.550Z,94211.28
2017-09-17T14:17:34.998Z,94188.98
2017-09-17T14:32:35.030Z,94172.20
2017-09-17T14:47:34.919Z,94168.22
2017-09-17T15:02:34.406Z,94181.79
2017-09-17T15:17:34.380Z,94173.97
2017-09-17T15:32:34.465Z,94179.06
2017-09-17T15:47:34.423Z,94166.06
2017-09-17T16:02:34.794Z,94157.08
2017-09-17T16:17:34.873Z,94166.41
2017-09-17T16:32:34.795Z,94167.55
2017-09-17T16:47:36.872Z,94156.86
2017-09-17T17:02:35.391Z,94182.98
2017-09-17T17:17:35.207Z,94227.03
2017-09-17T17:32:35.997Z,94246.50
2017-09-17T17:47:35.190Z,94246.98
2017-09-17T18:02:34.649Z,94226.36
2017-09-17T18:17:34.607Z,94225.00
2017-09-17T18:32:34.658Z,94233.27
2017-09-17T18:47:34.581Z,94212.11
2017-09-17T19:02:37.848Z,94202.46
2017-09-17T19:17:35.041Z,94202.02
2017-09-17T19:32:35.143Z,94203.56
2017-09-17T19:47:35.997Z,94210.22
2017-09-17T20:02:34.424Z,94228.05
2017-09-17T20:17:34.372Z,94227.05
2017-09-17T20:32:34.419Z,94250.58
2017-09-17T20:47:34.406Z,94261.55
2017-09-17T21:02:34.775Z,94291.70
2017-09-17T21:17:34.796Z,94318.24
2017-09-17T21:32:34.707Z,94329.28
2017-09-17T21:47:36.712Z,94332.05
2017-09-17T22:02:35.143Z,94325.97
2017-09-17T22:17:35.127Z,94337.00
2017-09-17T22:32:35.115Z,94330.56
2017-09-17T22:47:35.079Z,94334.30
2017-09-17T23:02:34.556Z,94338.98
2017-09-17T23:17:36.545Z,94340.95
2017-09-17T23:32:36.434Z,94344.30
2017-09-17T23:47:34.434Z,94347.38
